Time;durP1;ratioP1;P1;durP2;ratioP2;P2;SDS_P1;SDS_P2;PMS_P1;PMS_P2;Temp;Humidity;BMP_temperature;BMP_pressure;BME280_temperature;BME280_humidity;BME280_pressure;Samples;Min_cycle;Max_cycle;Signal;HPM_P1;HPM_P2
2022/03/26 00:02:18;;;;;;;76.47;38.50;;;10.90;22.70;;;;;;4994420;28;20265;-71
2022/03/26 00:04:44;;;;;;;87.23;38.20;;;10.60;23.40;;;;;;4992627;28;20185;-71
2022/03/26 00:07:09;;;;;;;77.93;38.50;;;10.60;23.80;;;;;;4994111;28;20663;-70
2022/03/26 00:09:35;;;;;;;84.50;39.70;;;11.00;22.10;;;;;;4994092;28;20452;-71
2022/03/26 00:12:02;;;;;;;69.57;37.53;;;11.20;21.70;;;;;;4981685;28;20757;-71
2022/03/26 00:14:28;;;;;;;79.60;40.15;;;11.00;22.80;;;;;;4974695;28;20437;-71
2022/03/26 00:16:53;;;;;;;88.83;39.53;;;11.30;21.80;;;;;;4990223;28;20186;-70
2022/03/26 00:19:19;;;;;;;77.50;39.50;;;10.90;22.90;;;;;;4993892;28;20405;-71
2022/03/26 00:21:47;;;;;;;77.90;39.77;;;10.60;23.60;;;;;;4993926;28;20202;-71
2022/03/26 00:24:14;;;;;;;79.72;38.92;;;10.40;23.90;;;;;;4989503;28;20177;-71
2022/03/26 00:26:40;;;;;;;82.75;38.33;;;10.40;24.10;;;;;;4988017;28;20201;-71
2022/03/26 00:29:08;;;;;;;79.40;37.50;;;10.30;24.60;;;;;;4984294;28;20181;-71
2022/03/26 00:31:34;;;;;;;77.05;40.83;;;10.30;24.30;;;;;;4974056;28;20209;-71
2022/03/26 00:34:00;;;;;;;85.50;42.92;;;10.20;24.90;;;;;;4974653;28;20656;-72
2022/03/26 00:36:26;;;;;;;79.47;39.80;;;10.40;24.20;;;;;;4974993;28;20575;-71
2022/03/26 00:38:52;;;;;;;90.25;41.67;;;10.20;24.50;;;;;;4993821;28;20316;-71
2022/03/26 00:41:18;;;;;;;74.43;40.57;;;10.30;24.40;;;;;;4992863;28;20289;-71
2022/03/26 00:43:44;;;;;;;86.63;38.30;;;10.30;24.90;;;;;;4988635;28;20186;-71
2022/03/26 00:46:11;;;;;;;80.83;38.83;;;10.40;24.20;;;;;;4987710;28;20437;-72
2022/03/26 00:48:37;;;;;;;67.82;38.33;;;10.60;23.60;;;;;;4993267;28;20188;-72
2022/03/26 00:51:03;;;;;;;78.33;41.47;;;10.80;23.50;;;;;;4991537;28;20214;-71
2022/03/26 00:53:28;;;;;;;90.17;39.93;;;10.90;23.00;;;;;;4973361;28;20184;-72
2022/03/26 00:55:54;;;;;;;92.83;39.73;;;10.60;23.60;;;;;;4974308;28;20410;-72
2022/03/26 00:58:20;;;;;;;79.68;40.13;;;10.60;23.30;;;;;;4974177;28;20175;-72
2022/03/26 01:00:46;;;;;;;78.70;39.30;;;10.50;23.80;;;;;;4974158;28;20210;-72
2022/03/26 01:03:12;;;;;;;70.30;37.77;;;10.40;23.90;;;;;;4975273;28;20194;-72
2022/03/26 01:05:41;;;;;;;81.27;41.53;;;10.40;23.60;;;;;;4973890;28;20892;-71
2022/03/26 01:08:07;;;;;;;79.70;38.67;;;10.00;24.40;;;;;;4973460;28;20793;-71
2022/03/26 01:10:33;;;;;;;88.03;38.70;;;10.10;24.20;;;;;;4973652;28;20237;-72
2022/03/26 01:12:58;;;;;;;73.40;37.83;;;10.20;24.30;;;;;;4975095;28;20670;-71
2022/03/26 01:15:24;;;;;;;80.10;39.23;;;10.20;24.00;;;;;;4973463;28;20176;-71
2022/03/26 01:17:50;;;;;;;79.60;38.60;;;10.10;24.60;;;;;;4973316;28;20215;-71
2022/03/26 01:20:17;;;;;;;80.00;38.93;;;10.10;24.40;;;;;;4987657;28;20456;-71
2022/03/26 01:22:43;;;;;;;75.13;39.60;;;10.20;24.20;;;;;;4992231;28;20464;-71
2022/03/26 01:25:09;;;;;;;78.73;38.03;;;10.00;25.30;;;;;;4991862;28;20672;-71
2022/03/26 01:27:35;;;;;;;69.90;36.40;;;10.00;24.40;;;;;;4992598;28;20177;-71
2022/03/26 01:30:00;;;;;;;82.87;37.77;;;10.00;24.70;;;;;;4991947;28;20198;-71
2022/03/26 01:32:26;;;;;;;102.37;40.27;;;9.80;25.70;;;;;;4973625;28;20254;-72
2022/03/26 01:34:51;;;;;;;98.70;46.13;;;9.70;25.60;;;;;;4973449;28;20180;-71
2022/03/26 01:37:17;;;;;;;90.83;42.37;;;10.00;24.50;;;;;;4987628;28;20291;-71
2022/03/26 01:39:43;;;;;;;93.30;43.93;;;9.90;25.30;;;;;;4992625;28;20193;-71
2022/03/26 01:42:09;;;;;;;81.25;41.53;;;10.00;24.50;;;;;;4990716;28;20185;-71
2022/03/26 01:44:37;;;;;;;83.90;40.43;;;9.80;25.20;;;;;;4992654;28;20711;-72
2022/03/26 01:47:04;;;;;;;87.97;41.90;;;10.20;24.30;;;;;;4992215;28;20413;-71
2022/03/26 01:49:30;;;;;;;94.05;40.53;;;10.10;24.10;;;;;;4992241;28;20174;-72
2022/03/26 01:51:57;;;;;;;91.38;40.70;;;10.30;23.70;;;;;;4990661;28;20206;-71
2022/03/26 01:54:25;;;;;;;96.65;39.72;;;10.10;24.40;;;;;;4977042;28;20544;-72
2022/03/26 01:56:51;;;;;;;83.00;39.72;;;10.40;24.00;;;;;;4972744;28;20198;-72
2022/03/26 01:59:17;;;;;;;94.97;39.70;;;9.90;25.90;;;;;;4973081;28;20798;-72
2022/03/26 02:01:43;;;;;;;93.20;41.33;;;9.80;26.40;;;;;;4974469;28;21168;-71
2022/03/26 02:04:09;;;;;;;89.83;41.57;;;9.70;25.60;;;;;;4972359;28;20180;-71
2022/03/26 02:06:38;;;;;;;109.82;45.60;;;9.50;26.80;;;;;;4972610;28;20209;-71
2022/03/26 02:09:13;;;;;;;101.60;42.95;;;9.50;26.40;;;;;;4972852;28;20644;-71
2022/03/26 02:11:41;;;;;;;94.95;42.63;;;9.20;27.30;;;;;;4989089;28;20241;-71
2022/03/26 02:14:08;;;;;;;98.32;39.80;;;9.10;26.90;;;;;;4991861;28;20186;-71
2022/03/26 02:16:36;;;;;;;81.30;38.40;;;9.20;26.70;;;;;;4991623;28;20209;-71
2022/03/26 02:19:03;;;;;;;84.60;39.33;;;9.20;27.40;;;;;;4991873;28;20666;-72
2022/03/26 02:21:30;;;;;;;80.78;37.30;;;9.40;26.70;;;;;;4991285;28;20221;-71
2022/03/26 02:23:56;;;;;;;77.70;36.38;;;9.40;26.20;;;;;;4990691;28;20317;-71
2022/03/26 02:26:26;;;;;;;80.60;36.83;;;9.30;27.00;;;;;;4985391;28;20273;-71
2022/03/26 02:28:56;;;;;;;78.95;38.05;;;9.20;27.10;;;;;;4989406;28;20278;-71
2022/03/26 02:31:23;;;;;;;74.93;36.63;;;9.50;25.90;;;;;;4987595;28;20209;-72
2022/03/26 02:33:49;;;;;;;77.00;37.30;;;9.50;26.00;;;;;;4993849;28;20178;-71
2022/03/26 02:36:15;;;;;;;71.75;35.72;;;9.50;25.90;;;;;;4983312;28;20178;-71
2022/03/26 02:38:41;;;;;;;74.53;36.97;;;9.40;26.10;;;;;;4973760;28;20182;-71
2022/03/26 02:41:07;;;;;;;71.93;34.70;;;9.40;25.80;;;;;;4972579;28;20679;-71
2022/03/26 02:43:34;;;;;;;72.93;35.55;;;9.50;25.90;;;;;;4973572;28;20185;-71
2022/03/26 02:46:00;;;;;;;74.68;36.17;;;9.20;27.10;;;;;;4981672;28;20221;-71
2022/03/26 02:48:26;;;;;;;72.88;35.97;;;9.10;27.20;;;;;;4972341;28;20205;-71
2022/03/26 02:50:52;;;;;;;76.90;35.28;;;9.20;27.00;;;;;;4972342;28;20265;-71
2022/03/26 02:53:17;;;;;;;78.00;36.00;;;9.30;26.40;;;;;;4972664;28;20379;-71
2022/03/26 02:55:43;;;;;;;73.67;36.43;;;9.20;27.20;;;;;;4973530;28;20190;-71
2022/03/26 02:58:09;;;;;;;74.40;36.30;;;9.00;27.00;;;;;;4972193;28;20249;-71
2022/03/26 03:00:37;;;;;;;76.37;35.83;;;9.30;26.20;;;;;;4973141;28;20679;-71
2022/03/26 03:03:03;;;;;;;81.70;36.67;;;9.30;26.20;;;;;;4991809;28;20170;-71
2022/03/26 03:05:28;;;;;;;83.57;35.80;;;9.30;26.10;;;;;;4989967;28;20190;-71
2022/03/26 03:07:54;;;;;;;69.23;35.93;;;9.10;26.30;;;;;;4991399;28;20421;-71
2022/03/26 03:10:20;;;;;;;71.93;34.93;;;9.30;25.90;;;;;;4990869;28;20574;-71
2022/03/26 03:12:47;;;;;;;74.07;36.95;;;9.30;25.80;;;;;;4991769;28;20289;-71
2022/03/26 03:15:17;;;;;;;78.45;38.40;;;9.40;25.90;;;;;;4991579;28;20175;-71
2022/03/26 03:17:42;;;;;;;72.70;35.85;;;9.20;26.20;;;;;;4991715;28;20199;-71
2022/03/26 03:20:09;;;;;;;71.60;35.43;;;10.00;27.60;;;;;;4994996;28;20210;-71
2022/03/26 03:22:36;;;;;;;77.72;36.45;;;8.90;26.70;;;;;;4995521;28;20937;-71
2022/03/26 03:25:03;;;;;;;78.43;38.10;;;9.10;26.40;;;;;;4995268;28;20592;-71
2022/03/26 03:27:29;;;;;;;72.53;36.22;;;8.90;27.80;;;;;;4986199;28;20187;-71
2022/03/26 03:29:54;;;;;;;68.47;35.20;;;8.80;27.20;;;;;;4975603;28;20206;-71
2022/03/26 03:32:20;;;;;;;73.80;35.97;;;8.90;26.60;;;;;;4975701;28;20414;-71
2022/03/26 03:34:45;;;;;;;86.87;35.17;;;9.00;26.60;;;;;;4977803;28;20179;-71
2022/03/26 03:37:11;;;;;;;77.23;35.77;;;8.70;27.10;;;;;;4993328;28;20170;-71
2022/03/26 03:39:37;;;;;;;70.07;36.07;;;8.60;27.60;;;;;;4993964;28;20702;-71
2022/03/26 03:42:04;;;;;;;76.17;35.23;;;8.40;27.70;;;;;;4994843;28;20190;-71
2022/03/26 03:44:30;;;;;;;77.88;35.40;;;8.40;27.90;;;;;;4994365;28;20178;-71
2022/03/26 03:46:55;;;;;;;69.30;35.40;;;8.20;28.40;;;;;;4994572;28;20193;-71
2022/03/26 03:49:21;;;;;;;87.07;37.93;;;8.10;28.60;;;;;;4982664;28;20175;-71
2022/03/26 03:51:47;;;;;;;88.63;37.43;;;8.20;28.00;;;;;;4977793;28;20516;-72
2022/03/26 03:54:14;;;;;;;74.60;36.20;;;8.20;28.40;;;;;;4994404;28;20416;-71
2022/03/26 03:56:39;;;;;;;81.93;34.88;;;8.10;28.60;;;;;;4979854;28;20429;-72
2022/03/26 03:59:05;;;;;;;78.40;38.20;;;8.30;27.80;;;;;;4975012;28;20170;-71
2022/03/26 04:01:31;;;;;;;75.73;35.47;;;8.40;27.60;;;;;;4988308;28;20445;-71
2022/03/26 04:03:57;;;;;;;75.28;36.50;;;8.50;27.80;;;;;;4994274;28;20261;-71
2022/03/26 04:06:23;;;;;;;82.50;37.57;;;8.30;28.10;;;;;;4988610;28;20420;-71
2022/03/26 04:08:49;;;;;;;75.45;36.38;;;7.90;28.50;;;;;;4991204;28;20182;-71
2022/03/26 04:11:14;;;;;;;89.30;37.90;;;8.00;28.90;;;;;;4974748;28;20219;-71
2022/03/26 04:13:40;;;;;;;74.87;37.07;;;8.10;28.00;;;;;;4974540;28;20175;-71
2022/03/26 04:16:06;;;;;;;84.27;36.93;;;8.20;27.90;;;;;;4975346;28;20174;-72
2022/03/26 04:18:31;;;;;;;82.03;37.23;;;7.90;28.40;;;;;;4994164;28;20663;-71
2022/03/26 04:20:57;;;;;;;72.40;36.90;;;7.80;29.40;;;;;;4993947;28;20216;-71
2022/03/26 04:23:24;;;;;;;73.40;35.83;;;7.70;29.70;;;;;;4993982;28;20276;-71
2022/03/26 04:25:50;;;;;;;70.53;37.50;;;7.90;28.40;;;;;;4991007;28;20206;-71
2022/03/26 04:28:15;;;;;;;76.40;37.23;;;7.90;28.50;;;;;;4973320;28;20214;-71
2022/03/26 04:30:41;;;;;;;78.33;37.47;;;7.70;29.50;;;;;;4974427;28;20552;-71
2022/03/26 04:33:07;;;;;;;76.70;37.47;;;7.60;29.80;;;;;;4974602;28;20409;-71
2022/03/26 04:35:34;;;;;;;84.22;37.38;;;7.80;28.70;;;;;;4993928;28;20189;-71
2022/03/26 04:38:01;;;;;;;82.78;39.63;;;7.70;29.00;;;;;;4988778;28;21017;-71
2022/03/26 04:40:28;;;;;;;75.22;36.95;;;8.20;29.00;;;;;;4974391;28;20248;-71
2022/03/26 04:42:55;;;;;;;83.20;37.28;;;8.40;28.20;;;;;;4977812;28;20178;-71
2022/03/26 04:45:22;;;;;;;79.55;38.50;;;7.80;28.90;;;;;;4989246;28;20194;-71
2022/03/26 04:47:47;;;;;;;69.03;36.58;;;7.70;29.30;;;;;;4974013;28;20171;-71
2022/03/26 04:50:13;;;;;;;73.80;36.97;;;7.80;28.80;;;;;;4976582;28;20559;-71
2022/03/26 04:52:39;;;;;;;79.27;37.73;;;8.00;28.40;;;;;;4993614;28;20417;-71
2022/03/26 04:55:10;;;;;;;74.00;35.40;;;7.70;28.80;;;;;;4993414;28;20174;-71
2022/03/26 04:57:44;;;;;;;81.28;37.45;;;7.70;29.30;;;;;;4992217;28;20166;-71
2022/03/26 05:00:12;;;;;;;102.88;38.25;;;7.70;29.70;;;;;;4991645;28;20217;-71
2022/03/26 05:02:39;;;;;;;78.45;38.35;;;7.40;29.80;;;;;;4993477;28;20568;-71
2022/03/26 05:05:06;;;;;;;78.43;37.50;;;7.40;29.70;;;;;;4993176;28;20272;-72
2022/03/26 05:07:47;;;;;;;76.13;37.03;;;7.30;30.00;;;;;;4980544;28;20187;-71
2022/03/26 05:10:21;;;;;;;78.43;36.20;;;7.20;30.30;;;;;;4973556;28;20215;-71
2022/03/26 05:12:48;;;;;;;71.25;36.55;;;7.20;30.30;;;;;;4973872;28;20159;-71
2022/03/26 05:15:14;;;;;;;80.25;37.88;;;7.50;29.60;;;;;;4973690;28;20236;-71
2022/03/26 05:17:41;;;;;;;75.30;35.78;;;7.50;29.40;;;;;;4981696;28;20270;-71
2022/03/26 05:20:08;;;;;;;97.13;37.70;;;7.70;30.00;;;;;;4992857;28;20256;-71
2022/03/26 05:22:35;;;;;;;79.50;38.25;;;7.50;29.70;;;;;;4992952;28;20216;-71
2022/03/26 05:25:02;;;;;;;80.18;36.78;;;7.50;29.80;;;;;;4992931;28;20181;-71
2022/03/26 05:27:27;;;;;;;85.25;38.90;;;7.60;29.00;;;;;;4986364;28;20178;-71
2022/03/26 05:29:54;;;;;;;77.53;36.13;;;7.50;29.40;;;;;;4986131;28;20202;-71
2022/03/26 05:32:19;;;;;;;86.15;38.13;;;7.50;29.80;;;;;;4978499;28;20613;-71
2022/03/26 05:34:46;;;;;;;80.90;38.40;;;7.50;29.50;;;;;;4976703;28;20273;-71
2022/03/26 05:37:12;;;;;;;85.20;36.88;;;7.80;28.90;;;;;;4990211;28;20186;-71
2022/03/26 05:39:38;;;;;;;78.20;36.45;;;7.50;29.20;;;;;;4979123;28;20197;-71
2022/03/26 05:42:05;;;;;;;76.83;37.47;;;7.50;29.60;;;;;;4972811;28;20203;-71
2022/03/26 05:44:31;;;;;;;73.50;36.90;;;7.40;30.50;;;;;;4978489;28;20433;-71
2022/03/26 05:46:56;;;;;;;75.30;38.40;;;7.50;30.00;;;;;;4991290;28;20201;-71
2022/03/26 05:49:22;;;;;;;79.27;38.03;;;7.60;29.30;;;;;;4992297;28;20186;-71
2022/03/26 05:51:48;;;;;;;80.77;38.30;;;7.60;29.30;;;;;;4979415;28;20305;-71
2022/03/26 05:54:15;;;;;;;71.13;36.57;;;7.60;29.80;;;;;;4973013;28;20170;-71
2022/03/26 05:56:40;;;;;;;78.75;36.80;;;7.60;29.40;;;;;;4973805;28;20592;-72
2022/03/26 05:59:10;;;;;;;81.10;38.93;;;7.50;31.50;;;;;;4972720;28;20182;-71
2022/03/26 06:01:36;;;;;;;85.78;38.88;;;7.60;29.80;;;;;;4981688;28;20562;-71
2022/03/26 06:04:02;;;;;;;80.85;41.20;;;7.50;29.80;;;;;;4992072;28;20192;-71
2022/03/26 06:06:28;;;;;;;87.65;39.75;;;7.50;29.80;;;;;;4987702;28;20594;-71
2022/03/26 06:08:54;;;;;;;86.30;40.70;;;7.40;29.70;;;;;;4984332;28;20268;-71
2022/03/26 06:11:20;;;;;;;88.43;40.70;;;7.50;29.20;;;;;;4991758;28;20209;-72
2022/03/26 06:13:46;;;;;;;90.38;41.17;;;7.50;29.20;;;;;;4991861;28;20189;-71
2022/03/26 06:16:13;;;;;;;85.10;41.25;;;7.70;28.90;;;;;;4991866;28;20201;-71
2022/03/26 06:18:39;;;;;;;85.60;40.72;;;7.90;29.10;;;;;;4990282;28;20209;-71
2022/03/26 06:21:05;;;;;;;105.20;43.73;;;7.80;29.00;;;;;;4991637;28;20295;-71
2022/03/26 06:23:33;;;;;;;87.78;41.17;;;7.70;29.30;;;;;;4991448;28;20182;-71
2022/03/26 06:25:59;;;;;;;91.97;42.22;;;7.70;29.20;;;;;;4980616;28;20182;-71
2022/03/26 06:28:25;;;;;;;82.67;41.20;;;8.00;29.40;;;;;;4980529;28;20183;-71
2022/03/26 06:30:51;;;;;;;86.07;42.67;;;8.10;29.40;;;;;;4991745;28;21092;-71
2022/03/26 06:33:17;;;;;;;92.77;44.80;;;8.10;29.00;;;;;;4991663;28;20175;-71
2022/03/26 06:35:47;;;;;;;90.05;41.53;;;8.10;28.70;;;;;;4991578;28;20881;-71
2022/03/26 06:38:12;;;;;;;95.88;44.35;;;8.00;29.00;;;;;;4991182;28;20177;-71
2022/03/26 06:40:39;;;;;;;95.07;43.17;;;7.90;29.20;;;;;;4991830;28;20272;-71
2022/03/26 06:43:06;;;;;;;87.80;41.67;;;8.20;28.80;;;;;;4978252;28;20874;-71
2022/03/26 06:45:32;;;;;;;86.47;42.80;;;8.40;29.00;;;;;;4972190;28;20178;-71
2022/03/26 06:47:57;;;;;;;90.13;43.70;;;8.30;28.90;;;;;;4973157;28;20248;-71
2022/03/26 06:50:24;;;;;;;90.83;42.20;;;8.30;28.50;;;;;;4972493;28;20210;-71
2022/03/26 06:52:50;;;;;;;101.53;42.63;;;8.50;28.40;;;;;;4975983;28;20163;-72
2022/03/26 06:55:16;;;;;;;87.40;44.50;;;8.50;28.40;;;;;;4987906;28;20189;-80
2022/03/26 06:57:42;;;;;;;103.57;42.77;;;8.60;28.80;;;;;;5005617;28;20405;-79
2022/03/26 07:00:11;;;;;;;106.77;46.97;;;8.20;28.50;;;;;;5004276;28;20213;-79
2022/03/26 07:02:37;;;;;;;93.88;44.75;;;8.30;29.20;;;;;;4999927;28;21076;-79
2022/03/26 07:05:04;;;;;;;96.40;44.60;;;8.50;28.20;;;;;;4995908;28;20189;-79
2022/03/26 07:07:30;;;;;;;92.07;43.83;;;8.60;28.30;;;;;;4989632;28;20496;-77
2022/03/26 07:09:56;;;;;;;88.27;45.50;;;8.60;28.20;;;;;;4982458;28;20211;-70
2022/03/26 07:12:22;;;;;;;101.37;43.60;;;8.60;28.50;;;;;;4986341;28;20491;-69
2022/03/26 07:14:47;;;;;;;99.87;44.57;;;8.60;28.30;;;;;;4985959;28;20514;-70
2022/03/26 07:17:16;;;;;;;92.77;44.80;;;8.60;27.90;;;;;;4980436;28;20171;-71
2022/03/26 07:19:42;;;;;;;90.32;44.22;;;8.60;28.70;;;;;;4985189;28;20179;-70
2022/03/26 07:22:07;;;;;;;103.07;44.53;;;8.90;28.00;;;;;;4981905;28;20193;-70
2022/03/26 07:24:33;;;;;;;96.27;43.83;;;9.40;26.90;;;;;;4993185;28;20649;-71
2022/03/26 07:26:59;;;;;;;99.40;46.73;;;9.30;27.10;;;;;;4991062;28;20288;-71
2022/03/26 07:29:25;;;;;;;90.03;45.80;;;9.20;27.30;;;;;;4990806;28;20200;-71
2022/03/26 07:31:50;;;;;;;87.93;44.90;;;9.10;27.20;;;;;;4994423;28;20218;-71
2022/03/26 07:34:17;;;;;;;92.57;44.73;;;9.40;27.30;;;;;;4994816;28;20503;-71
2022/03/26 07:36:43;;;;;;;86.38;43.63;;;10.00;25.30;;;;;;4992776;28;20177;-71
2022/03/26 07:39:08;;;;;;;82.70;42.70;;;9.60;26.30;;;;;;4989816;28;20194;-73
2022/03/26 07:41:34;;;;;;;101.60;43.70;;;8.90;27.20;;;;;;4984206;28;20581;-74
2022/03/26 07:43:59;;;;;;;87.17;42.23;;;9.20;26.90;;;;;;4989536;28;20228;-72
2022/03/26 07:46:25;;;;;;;85.80;41.40;;;10.10;25.00;;;;;;4984087;28;20178;-73
2022/03/26 07:48:51;;;;;;;87.17;40.47;;;10.80;24.40;;;;;;4980527;28;20190;-74
2022/03/26 07:51:17;;;;;;;79.90;40.67;;;11.10;23.60;;;;;;4990314;28;20236;-72
2022/03/26 07:53:42;;;;;;;99.23;41.20;;;10.20;24.10;;;;;;4994426;28;20538;-72
2022/03/26 07:56:08;;;;;;;80.63;41.80;;;9.60;25.90;;;;;;4994325;28;20174;-73
2022/03/26 07:58:34;;;;;;;80.40;41.33;;;10.10;25.10;;;;;;4990315;28;20186;-73
2022/03/26 08:00:59;;;;;;;83.50;41.57;;;10.30;24.70;;;;;;4992648;28;20219;-73
2022/03/26 08:03:25;;;;;;;101.03;40.43;;;10.90;23.90;;;;;;4993185;28;20524;-73
2022/03/26 08:05:51;;;;;;;92.33;41.40;;;10.50;24.00;;;;;;4986427;28;20189;-74
2022/03/26 08:08:16;;;;;;;86.27;42.20;;;10.30;24.60;;;;;;4987674;28;20206;-74
2022/03/26 08:10:42;;;;;;;81.70;41.33;;;10.40;24.70;;;;;;4994275;28;20216;-74
2022/03/26 08:13:08;;;;;;;73.73;40.50;;;11.00;23.70;;;;;;4987266;28;20214;-75
2022/03/26 08:15:34;;;;;;;77.20;41.47;;;11.50;23.20;;;;;;4976279;28;20182;-74
2022/03/26 08:18:02;;;;;;;83.43;42.50;;;11.90;22.40;;;;;;4993548;28;20608;-73
2022/03/26 08:20:29;;;;;;;87.63;42.57;;;11.30;22.90;;;;;;4992158;28;20747;-72
2022/03/26 08:22:55;;;;;;;103.40;43.80;;;11.20;23.50;;;;;;4993693;28;20463;-72
2022/03/26 08:28:10;;;;;;;82.70;39.87;;;11.80;22.90;;;;;;4993253;28;20419;-72
2022/03/26 08:30:36;;;;;;;73.33;38.63;;;11.30;23.40;;;;;;4979856;28;20540;-72
2022/03/26 08:33:02;;;;;;;80.57;40.13;;;11.50;23.10;;;;;;4983456;28;20861;-72
2022/03/26 08:35:35;;;;;;;72.77;39.93;;;11.20;23.60;;;;;;4993299;28;20906;-73
2022/03/26 08:38:01;;;;;;;83.53;40.03;;;11.90;22.70;;;;;;4993335;28;20395;-73
2022/03/26 08:40:27;;;;;;;93.47;39.20;;;11.90;22.70;;;;;;4986576;28;20481;-73
2022/03/26 08:42:53;;;;;;;94.33;42.10;;;12.00;22.00;;;;;;4973821;28;20477;-72
2022/03/26 08:45:19;;;;;;;89.83;40.53;;;11.70;22.60;;;;;;4974162;28;20422;-73
2022/03/26 08:47:46;;;;;;;83.00;39.40;;;11.80;22.50;;;;;;4987159;28;20186;-73
2022/03/26 08:50:12;;;;;;;81.90;41.17;;;12.30;22.10;;;;;;4991798;28;20205;-73
2022/03/26 08:52:37;;;;;;;72.37;38.10;;;13.20;21.30;;;;;;4973750;28;20411;-73
2022/03/26 08:55:04;;;;;;;83.43;42.10;;;13.90;20.50;;;;;;4977680;28;20425;-73
2022/03/26 08:57:30;;;;;;;80.50;40.80;;;14.40;19.40;;;;;;4992552;28;20663;-73
2022/03/26 08:59:56;;;;;;;76.10;39.53;;;14.60;19.20;;;;;;4993845;28;20533;-72
2022/03/26 09:02:22;;;;;;;78.47;40.90;;;14.00;19.50;;;;;;4990022;28;20451;-72
2022/03/26 09:04:48;;;;;;;80.33;41.03;;;13.60;20.70;;;;;;4993033;28;20422;-73
2022/03/26 09:07:14;;;;;;;81.60;41.30;;;14.10;20.10;;;;;;5004110;28;20202;-73
2022/03/26 09:09:39;;;;;;;81.20;41.70;;;13.90;20.10;;;;;;4998749;28;20405;-72
2022/03/26 09:12:05;;;;;;;82.47;40.50;;;13.30;20.70;;;;;;4975354;28;20198;-72
2022/03/26 09:14:31;;;;;;;78.87;39.73;;;12.50;22.40;;;;;;4973367;28;20180;-73
2022/03/26 09:16:57;;;;;;;79.63;39.90;;;13.40;21.60;;;;;;4973459;28;20417;-73
2022/03/26 09:19:22;;;;;;;75.60;39.60;;;13.90;20.80;;;;;;4973369;28;20186;-73
2022/03/26 09:21:49;;;;;;;83.60;39.53;;;14.70;20.00;;;;;;4975212;28;20224;-73
2022/03/26 09:24:16;;;;;;;91.17;42.13;;;15.20;19.70;;;;;;4973481;28;20579;-73
2022/03/26 09:26:42;;;;;;;86.70;40.77;;;15.30;19.30;;;;;;4983255;28;20523;-73
2022/03/26 09:29:07;;;;;;;84.83;41.40;;;14.90;19.70;;;;;;4991813;28;21183;-73
2022/03/26 09:31:33;;;;;;;77.20;38.57;;;15.10;19.00;;;;;;4992170;28;20583;-73
2022/03/26 09:33:59;;;;;;;81.30;40.80;;;15.10;19.30;;;;;;4990261;28;20222;-73
2022/03/26 09:36:25;;;;;;;79.90;39.00;;;15.30;19.50;;;;;;4991144;28;20178;-73
2022/03/26 09:38:51;;;;;;;78.93;40.70;;;15.90;18.90;;;;;;4992148;28;20853;-73
2022/03/26 09:41:16;;;;;;;73.10;38.60;;;16.40;18.40;;;;;;4992075;28;20602;-72
2022/03/26 09:43:43;;;;;;;78.70;40.03;;;16.30;17.60;;;;;;4989554;28;20220;-72
2022/03/26 09:46:10;;;;;;;90.50;39.43;;;15.90;17.70;;;;;;4981754;28;20426;-74
2022/03/26 09:48:37;;;;;;;81.57;39.10;;;15.60;18.10;;;;;;4979536;28;20952;-75
2022/03/26 09:51:03;;;;;;;84.10;39.67;;;15.90;18.30;;;;;;4973875;28;20563;-74
2022/03/26 09:53:29;;;;;;;81.20;38.57;;;16.30;18.20;;;;;;4984050;28;20435;-74
2022/03/26 09:55:56;;;;;;;91.53;38.33;;;16.50;17.10;;;;;;4991896;28;20410;-73
2022/03/26 09:58:21;;;;;;;82.37;42.47;;;16.00;17.50;;;;;;4986949;28;20467;-74
2022/03/26 10:00:48;;;;;;;80.17;39.23;;;16.10;17.30;;;;;;4992073;28;20472;-74
2022/03/26 10:03:13;;;;;;;76.30;38.87;;;16.10;18.00;;;;;;4991617;28;20202;-74
2022/03/26 10:05:39;;;;;;;75.80;39.70;;;16.90;16.90;;;;;;4991058;28;20949;-74
2022/03/26 10:08:15;;;;;;;73.20;38.33;;;16.40;17.50;;;;;;4990010;28;20190;-74
2022/03/26 10:10:44;;;;;;;90.63;39.40;;;16.80;17.40;;;;;;4990291;28;20297;-74
2022/03/26 10:13:09;;;;;;;88.73;40.07;;;17.50;16.80;;;;;;4991727;28;20954;-74
2022/03/26 10:15:35;;;;;;;74.97;40.03;;;18.00;16.60;;;;;;4991793;28;20411;-73
2022/03/26 10:18:10;;;;;;;83.07;40.10;;;18.00;15.50;;;;;;4991433;28;20272;-74
2022/03/26 10:20:37;;;;;;;77.10;40.93;;;18.00;15.70;;;;;;4990826;28;20697;-75
2022/03/26 10:23:02;;;;;;;77.80;41.97;;;18.60;15.00;;;;;;4991593;28;20830;-75
2022/03/26 10:25:31;;;;;;;88.53;41.57;;;18.80;15.40;;;;;;4990317;28;20436;-74
2022/03/26 10:27:57;;;;;;;75.10;40.60;;;19.50;14.60;;;;;;4991023;28;20197;-75
2022/03/26 10:33:23;;;;;;;68.00;38.40;;;19.60;15.10;;;;;;4991556;28;20463;-75
2022/03/26 10:36:03;;;;;;;79.70;39.40;;;19.80;13.90;;;;;;4991518;28;20421;-75
2022/03/26 10:38:34;;;;;;;90.60;44.70;;;19.80;14.70;;;;;;4991380;28;21680;-74
2022/03/26 10:41:02;;;;;;;79.13;40.83;;;20.30;13.40;;;;;;4989814;28;21028;-72
2022/03/26 10:43:28;;;;;;;78.20;41.80;;;20.70;12.70;;;;;;4991367;28;20962;-73
2022/03/26 10:45:55;;;;;;;76.63;40.20;;;20.50;12.60;;;;;;4985501;28;20427;-73
2022/03/26 10:48:26;;;;;;;86.83;38.57;;;20.80;14.20;;;;;;4981864;28;20187;-72
2022/03/26 10:50:59;;;;;;;78.53;41.30;;;20.80;12.80;;;;;;4981122;28;20469;-72
2022/03/26 10:53:35;;;;;;;84.83;39.23;;;20.60;12.70;;;;;;4978360;28;20809;-72
2022/03/26 10:56:06;;;;;;;80.53;40.73;;;20.90;12.20;;;;;;4976011;28;20508;-71
2022/03/26 10:58:33;;;;;;;76.80;40.27;;;21.50;12.10;;;;;;5001828;28;20444;-73
2022/03/26 11:00:59;;;;;;;74.10;40.07;;;21.60;11.80;;;;;;4972421;28;20446;-72
2022/03/26 11:03:25;;;;;;;70.90;39.20;;;21.80;11.10;;;;;;4991511;28;20503;-73
2022/03/26 11:05:55;;;;;;;64.10;38.10;;;22.40;11.30;;;;;;4991212;28;20270;-73
2022/03/26 11:08:23;;;;;;;81.03;39.30;;;23.10;10.90;;;;;;4991075;28;20409;-73
2022/03/26 11:11:01;;;;;;;83.37;36.40;;;23.60;9.30;;;;;;4991162;28;20468;-73
2022/03/26 11:13:28;;;;;;;70.27;39.03;;;24.70;9.90;;;;;;4977319;28;20444;-73
2022/03/26 11:16:04;;;;;;;77.67;38.77;;;24.80;8.10;;;;;;4971820;28;20422;-73
2022/03/26 11:19:00;;;;;;;61.27;32.70;;;25.20;6.70;;;;;;4970563;28;20926;-73
2022/03/26 11:21:44;;;;;;;50.07;33.80;;;26.10;4.70;;;;;;4982369;28;20456;-74
2022/03/26 11:24:27;;;;;;;61.57;35.07;;;25.70;5.00;;;;;;4989745;28;20472;-74
2022/03/26 11:27:19;;;;;;;52.70;33.90;;;26.70;4.90;;;;;;4987740;28;20417;-73
2022/03/26 11:30:07;;;;;;;70.80;34.73;;;26.50;4.40;;;;;;4989747;28;20412;-74
2022/03/26 11:32:36;;;;;;;47.20;31.60;;;26.50;4.00;;;;;;4988757;28;20413;-74
2022/03/26 11:35:08;;;;;;;48.60;30.60;;;27.00;3.70;;;;;;4989395;28;20474;-73
2022/03/26 11:37:34;;;;;;;56.77;31.90;;;28.20;4.10;;;;;;4992768;28;20458;-74
2022/03/26 11:40:00;;;;;;;57.43;32.50;;;28.80;1.90;;;;;;4994550;28;20959;-73
2022/03/26 11:42:35;;;;;;;43.17;27.90;;;28.80;3.50;;;;;;4994301;28;20671;-73
2022/03/26 11:51:16;;;;;;;51.20;29.30;;;30.10;1.00;;;;;;4993902;28;20783;-74
2022/03/26 11:53:44;;;;;;;50.97;29.50;;;30.00;1.20;;;;;;4994507;28;20467;-73
2022/03/26 11:56:31;;;;;;;60.30;33.13;;;30.00;1.00;;;;;;4993460;28;20547;-72
2022/03/26 11:59:06;;;;;;;53.90;30.53;;;29.30;1.90;;;;;;4994287;28;20551;-73
2022/03/26 12:01:50;;;;;;;53.17;30.83;;;29.00;2.00;;;;;;4994246;28;20834;-73
2022/03/26 12:04:25;;;;;;;51.93;29.00;;;28.40;2.70;;;;;;4994572;28;20910;-74
2022/03/26 12:06:58;;;;;;;42.30;28.63;;;29.00;1.60;;;;;;4993380;28;20423;-73
2022/03/26 12:09:31;;;;;;;47.00;28.90;;;29.00;1.00;;;;;;4994171;28;20765;-73
2022/03/26 12:12:17;;;;;;;43.87;29.37;;;30.20;1.00;;;;;;4994133;28;20491;-74
2022/03/26 12:15:05;;;;;;;47.40;28.80;;;29.40;1.00;;;;;;4994068;28;20940;-76
2022/03/26 12:18:07;;;;;;;44.70;28.00;;;27.90;1.60;;;;;;4990813;28;20420;-73
2022/03/26 12:20:37;;;;;;;41.17;29.97;;;28.30;1.60;;;;;;4977839;28;20494;-75
2022/03/26 12:23:19;;;;;;;44.10;29.50;;;29.80;1.00;;;;;;4974742;28;20457;-72
2022/03/26 12:25:53;;;;;;;51.53;28.47;;;28.20;1.50;;;;;;4974402;28;20430;-74
2022/03/26 12:28:36;;;;;;;44.37;29.80;;;29.60;1.20;;;;;;4974288;28;20413;-74
2022/03/26 12:31:04;;;;;;;47.77;28.20;;;31.10;1.00;;;;;;4990034;28;20468;-74
2022/03/26 12:33:47;;;;;;;40.90;27.13;;;32.10;1.00;;;;;;4993628;28;20412;-75
2022/03/26 12:36:15;;;;;;;68.67;37.90;;;31.60;1.00;;;;;;4978202;28;20519;-74
2022/03/26 12:38:46;;;;;;;48.03;28.93;;;30.40;1.00;;;;;;4974412;28;20409;-73
2022/03/26 12:41:13;;;;;;;43.60;29.73;;;29.80;1.00;;;;;;4974172;28;20426;-73
2022/03/26 12:43:39;;;;;;;43.37;30.30;;;29.80;1.00;;;;;;4973429;28;20947;-73
2022/03/26 12:46:09;;;;;;;44.43;29.40;;;30.40;1.00;;;;;;4988986;28;20443;-74
2022/03/26 12:48:35;;;;;;;47.27;29.67;;;30.00;1.00;;;;;;4976708;28;20171;-74